Time;durP1;ratioP1;P1;durP2;ratioP2;P2;SDS_P1;SDS_P2;PMS_P1;PMS_P2;Temp;Humidity;BMP_temperature;BMP_pressure;BME280_temperature;BME280_humidity;BME280_pressure;Samples;Min_cycle;Max_cycle;Signal;HPM_P1;HPM_P2
2024/02/05 00:01:23;;;;;;;32.00;7.75;;;12.20;99.90;;;;;;5037372;28;20030;-72
2024/02/05 00:03:49;;;;;;;33.60;6.85;;;12.20;99.90;;;;;;5038212;28;20030;-72
2024/02/05 00:06:15;;;;;;;28.05;7.47;;;12.20;99.90;;;;;;5037823;28;20033;-72
2024/02/05 00:08:41;;;;;;;25.25;7.63;;;12.20;99.90;;;;;;5037949;28;20087;-73
2024/02/05 00:11:07;;;;;;;34.78;7.20;;;12.20;99.90;;;;;;5037023;28;20486;-72
2024/02/05 00:13:33;;;;;;;25.20;6.28;;;12.20;99.90;;;;;;5026697;28;20030;-73
2024/02/05 00:15:59;;;;;;;27.08;7.38;;;12.20;99.90;;;;;;5034994;28;20033;-72
2024/02/05 00:18:25;;;;;;;30.63;8.60;;;12.30;99.90;;;;;;5029752;28;20092;-72
2024/02/05 00:20:51;;;;;;;27.85;7.90;;;12.20;99.90;;;;;;5024714;28;20526;-72
2024/02/05 00:23:17;;;;;;;28.92;8.07;;;12.20;99.90;;;;;;5035645;28;20101;-72
2024/02/05 00:25:43;;;;;;;29.80;8.18;;;12.20;99.90;;;;;;5034361;28;20446;-72
2024/02/05 00:28:10;;;;;;;38.53;8.82;;;12.20;99.90;;;;;;5032353;28;20601;-73
2024/02/05 00:30:36;;;;;;;38.15;8.07;;;12.20;99.90;;;;;;5017590;28;20065;-73
2024/02/05 00:33:02;;;;;;;36.90;9.30;;;12.20;99.90;;;;;;5026021;28;20470;-73
2024/02/05 00:35:27;;;;;;;29.60;8.85;;;12.20;99.90;;;;;;5027647;28;20027;-73
2024/02/05 00:37:53;;;;;;;33.20;8.15;;;12.20;99.90;;;;;;5027457;28;20029;-72
2024/02/05 00:40:20;;;;;;;32.63;8.60;;;12.10;99.90;;;;;;5020029;28;20099;-75
2024/02/05 00:42:46;;;;;;;34.08;9.43;;;12.10;99.90;;;;;;5028501;28;20101;-73
2024/02/05 00:45:12;;;;;;;28.50;7.72;;;12.20;99.90;;;;;;5023359;28;20076;-73
2024/02/05 00:47:37;;;;;;;25.42;8.50;;;12.10;99.90;;;;;;5028008;28;20482;-73
2024/02/05 00:50:05;;;;;;;34.75;10.02;;;12.10;99.90;;;;;;5026666;28;20497;-73
2024/02/05 00:52:34;;;;;;;32.35;8.43;;;12.10;99.90;;;;;;5025039;28;20032;-73
2024/02/05 00:54:59;;;;;;;27.05;9.35;;;12.10;99.90;;;;;;5023524;28;20033;-73
2024/02/05 00:57:26;;;;;;;37.63;9.10;;;12.10;99.90;;;;;;5026159;28;20445;-73
2024/02/05 00:59:56;;;;;;;31.90;9.35;;;12.10;99.90;;;;;;5013928;28;20471;-73
2024/02/05 01:02:23;;;;;;;36.70;10.32;;;12.10;99.90;;;;;;5028516;28;20034;-73
2024/02/05 01:04:49;;;;;;;34.40;10.65;;;12.10;99.90;;;;;;5026134;28;20029;-73
2024/02/05 01:07:15;;;;;;;34.25;9.82;;;12.10;99.90;;;;;;5013541;28;20117;-74
2024/02/05 01:09:41;;;;;;;36.85;10.02;;;12.10;99.90;;;;;;5024839;28;20041;-73
2024/02/05 01:12:08;;;;;;;42.88;10.35;;;12.10;99.90;;;;;;5033798;28;20029;-73
2024/02/05 01:14:34;;;;;;;40.75;9.95;;;12.10;99.90;;;;;;5033374;28;20032;-73
2024/02/05 01:17:00;;;;;;;37.72;10.40;;;12.10;99.90;;;;;;5033552;28;20021;-73
2024/02/05 01:19:26;;;;;;;30.92;9.77;;;12.10;99.90;;;;;;5033807;28;20028;-73
2024/02/05 01:21:52;;;;;;;36.75;10.55;;;12.00;99.90;;;;;;5033395;28;20029;-73
2024/02/05 01:24:18;;;;;;;36.20;10.05;;;12.00;99.90;;;;;;5033789;28;20108;-73
2024/02/05 01:26:44;;;;;;;29.30;9.70;;;12.00;99.90;;;;;;5032482;28;20478;-73
2024/02/05 01:29:09;;;;;;;31.52;10.52;;;12.00;99.90;;;;;;5032920;28;20028;-73
2024/02/05 01:31:36;;;;;;;36.50;10.27;;;12.00;99.90;;;;;;5033339;28;20395;-73
2024/02/05 01:34:02;;;;;;;38.47;10.18;;;12.00;99.90;;;;;;5032841;28;20088;-73
2024/02/05 01:36:28;;;;;;;37.75;10.50;;;12.10;99.90;;;;;;5033179;28;20029;-73
2024/02/05 01:38:55;;;;;;;33.75;11.20;;;12.00;99.90;;;;;;5032709;28;20025;-73
2024/02/05 01:41:21;;;;;;;26.20;9.40;;;12.00;99.90;;;;;;5022980;28;20044;-73
2024/02/05 01:43:47;;;;;;;34.88;9.77;;;12.00;99.90;;;;;;5031433;28;20017;-73
2024/02/05 01:46:16;;;;;;;38.45;11.07;;;12.00;99.90;;;;;;5031730;28;20590;-73
2024/02/05 01:48:44;;;;;;;33.53;10.75;;;12.00;99.90;;;;;;5033511;28;20104;-73
2024/02/05 01:51:16;;;;;;;41.38;11.48;;;12.00;99.90;;;;;;5031380;28;20037;-73
2024/02/05 01:53:43;;;;;;;39.55;10.73;;;12.00;99.90;;;;;;5032067;28;20036;-73
2024/02/05 01:56:10;;;;;;;34.95;10.20;;;12.00;99.90;;;;;;5032477;28;20026;-73
2024/02/05 01:58:39;;;;;;;35.60;10.00;;;12.10;99.90;;;;;;5032757;28;20018;-73
2024/02/05 02:01:06;;;;;;;39.63;9.93;;;12.10;99.90;;;;;;5033211;28;20049;-73
2024/02/05 02:03:34;;;;;;;41.50;10.23;;;12.10;99.90;;;;;;5033233;28;20060;-73
2024/02/05 02:06:01;;;;;;;34.95;9.93;;;12.10;99.90;;;;;;5032478;28;20029;-73
2024/02/05 02:08:28;;;;;;;30.42;9.00;;;12.10;99.90;;;;;;5032338;28;20032;-73
2024/02/05 02:10:53;;;;;;;45.03;10.18;;;12.10;99.90;;;;;;5031994;28;20079;-73
2024/02/05 02:13:19;;;;;;;30.88;9.05;;;12.10;99.90;;;;;;5031297;28;20118;-73
2024/02/05 02:15:50;;;;;;;32.25;8.70;;;12.10;99.90;;;;;;5033150;28;20021;-73
2024/02/05 02:18:18;;;;;;;26.10;8.55;;;12.10;99.90;;;;;;5032539;28;20042;-73
2024/02/05 02:20:46;;;;;;;32.78;8.82;;;12.00;99.90;;;;;;5032650;28;20104;-73
2024/02/05 02:23:26;;;;;;;32.70;7.95;;;12.00;99.90;;;;;;5032632;28;20021;-73
2024/02/05 02:25:52;;;;;;;30.50;9.48;;;12.00;99.90;;;;;;5031136;28;20206;-73
2024/02/05 02:28:18;;;;;;;42.33;9.48;;;12.00;99.90;;;;;;5024888;28;20032;-73
2024/02/05 02:30:45;;;;;;;25.15;8.45;;;11.90;99.90;;;;;;5012888;28;20033;-72
2024/02/05 02:33:25;;;;;;;43.42;9.80;;;12.00;99.90;;;;;;5023488;28;20025;-73
2024/02/05 02:36:04;;;;;;;35.72;10.50;;;12.00;99.90;;;;;;5032129;28;20553;-72
2024/02/05 02:38:48;;;;;;;39.97;9.77;;;11.90;99.90;;;;;;5032337;28;20021;-72
2024/02/05 02:41:29;;;;;;;35.10;8.65;;;11.90;99.90;;;;;;5032609;28;20032;-73
2024/02/05 02:43:59;;;;;;;43.20;9.52;;;11.90;99.90;;;;;;5032063;28;20039;-73
2024/02/05 02:46:26;;;;;;;30.15;7.18;;;12.00;99.90;;;;;;5032769;28;20021;-72
2024/02/05 02:48:52;;;;;;;31.52;8.68;;;11.90;99.90;;;;;;5032204;28;20417;-72
2024/02/05 02:51:17;;;;;;;33.40;9.18;;;11.90;99.90;;;;;;5031046;28;20106;-72
2024/02/05 02:53:43;;;;;;;38.97;9.02;;;11.90;99.90;;;;;;5032341;28;20467;-72
2024/02/05 02:56:12;;;;;;;43.33;8.48;;;12.00;99.90;;;;;;5031031;28;20030;-72
2024/02/05 02:58:37;;;;;;;38.80;9.07;;;11.90;99.90;;;;;;5032265;28;20029;-72
2024/02/05 03:01:04;;;;;;;39.47;8.80;;;12.00;99.90;;;;;;5032362;28;20116;-73
2024/02/05 03:03:30;;;;;;;35.47;7.78;;;12.00;99.90;;;;;;5032175;28;20024;-72
2024/02/05 03:05:56;;;;;;;44.03;8.93;;;12.00;99.90;;;;;;5031350;28;20018;-72
2024/02/05 03:08:22;;;;;;;32.92;8.07;;;12.00;99.90;;;;;;5032216;28;20030;-72
2024/02/05 03:10:49;;;;;;;35.85;8.65;;;12.00;99.90;;;;;;5030562;28;20512;-73
2024/02/05 03:13:15;;;;;;;48.47;8.75;;;11.90;99.90;;;;;;5032004;28;20033;-73
2024/02/05 03:15:41;;;;;;;31.65;7.65;;;12.00;99.90;;;;;;5032211;28;20029;-73
2024/02/05 03:18:07;;;;;;;29.85;7.22;;;12.00;99.90;;;;;;5031684;28;20437;-72
2024/02/05 03:20:34;;;;;;;40.15;8.45;;;11.90;99.90;;;;;;5030329;28;20028;-72
2024/02/05 03:23:01;;;;;;;36.83;8.73;;;11.90;99.90;;;;;;5031782;28;20079;-72
2024/02/05 03:25:28;;;;;;;38.15;7.50;;;11.90;99.90;;;;;;5031871;28;20022;-72
2024/02/05 03:27:55;;;;;;;32.60;7.88;;;11.90;99.90;;;;;;5031853;28;20026;-72
2024/02/05 03:30:21;;;;;;;39.67;9.85;;;11.90;99.90;;;;;;5032700;28;20033;-73
2024/02/05 03:32:47;;;;;;;41.50;8.70;;;11.90;99.90;;;;;;5031564;28;20391;-73
2024/02/05 03:35:15;;;;;;;40.58;7.85;;;11.90;99.90;;;;;;5031626;28;20048;-73
2024/02/05 03:37:42;;;;;;;37.03;8.80;;;12.00;99.90;;;;;;5032091;28;20104;-72
2024/02/05 03:40:08;;;;;;;36.35;8.25;;;11.90;99.90;;;;;;5031933;28;20028;-72
2024/02/05 03:42:34;;;;;;;27.95;8.50;;;12.00;99.90;;;;;;5032215;28;20448;-72
2024/02/05 03:45:00;;;;;;;31.13;8.30;;;12.00;99.90;;;;;;5030551;28;20490;-73
2024/02/05 03:47:25;;;;;;;28.05;7.55;;;12.00;99.90;;;;;;5031737;28;20466;-72
2024/02/05 03:49:51;;;;;;;37.50;8.93;;;11.90;99.90;;;;;;5030888;28;20117;-73
2024/02/05 03:52:17;;;;;;;35.85;8.70;;;12.00;99.90;;;;;;5032029;28;20160;-72
2024/02/05 03:54:44;;;;;;;38.42;8.75;;;12.00;99.90;;;;;;5031953;28;20033;-72
2024/02/05 03:57:10;;;;;;;37.45;9.95;;;12.00;99.90;;;;;;5032102;28;20051;-73
2024/02/05 03:59:36;;;;;;;38.08;7.75;;;12.00;99.90;;;;;;5031864;28;20037;-73
2024/02/05 04:02:04;;;;;;;30.75;7.65;;;12.00;99.90;;;;;;5033073;28;20087;-73
2024/02/05 04:04:30;;;;;;;37.00;8.05;;;12.00;99.90;;;;;;5035406;28;20101;-73
2024/02/05 04:06:56;;;;;;;32.00;8.13;;;12.00;99.90;;;;;;5035387;28;20733;-72
2024/02/05 04:09:22;;;;;;;32.08;7.47;;;12.00;99.90;;;;;;5035078;28;20030;-73
2024/02/05 04:11:48;;;;;;;32.08;7.78;;;12.00;99.90;;;;;;5035389;28;20080;-72
2024/02/05 04:14:13;;;;;;;36.75;9.05;;;12.00;99.90;;;;;;5034576;28;20110;-73
2024/02/05 04:16:39;;;;;;;37.53;8.02;;;11.90;99.90;;;;;;5034607;28;20299;-73
2024/02/05 04:19:05;;;;;;;35.50;8.55;;;11.90;99.90;;;;;;5035049;28;20029;-72
2024/02/05 04:21:31;;;;;;;31.55;7.45;;;11.90;99.90;;;;;;5035249;28;20033;-72
2024/02/05 04:23:56;;;;;;;49.55;8.80;;;11.90;99.90;;;;;;5035008;28;20470;-72
2024/02/05 04:26:22;;;;;;;37.08;8.95;;;11.90;99.90;;;;;;5034922;28;20030;-72
2024/02/05 04:28:48;;;;;;;34.95;7.95;;;11.90;99.90;;;;;;5035133;28;20415;-72
2024/02/05 04:31:17;;;;;;;36.20;8.13;;;11.90;99.90;;;;;;5033201;28;20049;-72
2024/02/05 04:33:44;;;;;;;42.88;8.65;;;11.90;99.90;;;;;;5034875;28;20025;-73
2024/02/05 04:36:13;;;;;;;42.45;8.27;;;11.90;99.90;;;;;;5034414;28;20478;-72
2024/02/05 04:38:39;;;;;;;35.60;8.05;;;11.90;99.90;;;;;;5034079;28;20022;-72
2024/02/05 04:41:07;;;;;;;41.38;8.50;;;11.90;99.90;;;;;;5034568;28;20080;-72
2024/02/05 04:43:33;;;;;;;34.17;8.00;;;11.80;99.90;;;;;;5034949;28;20033;-72
2024/02/05 04:45:59;;;;;;;34.47;7.38;;;11.90;99.90;;;;;;5034342;28;20462;-72
2024/02/05 04:48:25;;;;;;;36.88;8.18;;;11.90;99.90;;;;;;5034667;28;20025;-73
2024/02/05 04:50:51;;;;;;;33.40;8.05;;;11.90;99.90;;;;;;5034890;28;20363;-73
2024/02/05 04:53:17;;;;;;;36.88;8.77;;;11.80;99.90;;;;;;5034699;28;20087;-73
2024/02/05 04:55:42;;;;;;;31.88;8.02;;;11.90;99.90;;;;;;5034547;28;20071;-73
2024/02/05 04:58:11;;;;;;;29.70;7.53;;;11.90;99.90;;;;;;5034482;28;20029;-73
2024/02/05 05:00:37;;;;;;;33.78;7.93;;;11.90;99.90;;;;;;5034094;28;20029;-73
2024/02/05 05:03:05;;;;;;;40.70;8.40;;;11.90;99.90;;;;;;5034447;28;20057;-73
2024/02/05 05:05:30;;;;;;;30.85;7.40;;;11.90;99.90;;;;;;5034059;28;20105;-73
2024/02/05 05:07:56;;;;;;;46.83;8.55;;;11.90;99.90;;;;;;5034093;28;20096;-73
2024/02/05 05:10:22;;;;;;;38.40;8.18;;;11.90;99.90;;;;;;5033860;28;20040;-73
2024/02/05 05:12:48;;;;;;;33.08;7.82;;;11.80;99.90;;;;;;5033325;28;20033;-73
2024/02/05 05:15:15;;;;;;;39.65;7.00;;;11.90;99.90;;;;;;5033791;28;20029;-73
2024/02/05 05:17:44;;;;;;;41.10;7.65;;;11.80;99.90;;;;;;5027895;28;20034;-73
2024/02/05 05:20:14;;;;;;;37.05;7.88;;;11.90;99.90;;;;;;5013802;28;20033;-73
2024/02/05 05:22:40;;;;;;;42.25;6.90;;;11.90;99.90;;;;;;5012782;28;20018;-73
2024/02/05 05:25:07;;;;;;;36.10;7.85;;;11.90;99.90;;;;;;5013761;28;20033;-72
2024/02/05 05:27:32;;;;;;;31.00;7.57;;;11.80;99.90;;;;;;5013742;28;20026;-73
2024/02/05 05:29:58;;;;;;;29.63;7.10;;;11.80;99.90;;;;;;5013625;28;20494;-73
2024/02/05 05:32:23;;;;;;;31.15;6.20;;;11.80;99.90;;;;;;5017978;28;20111;-73
2024/02/05 05:34:49;;;;;;;37.70;7.22;;;11.90;99.90;;;;;;5033735;28;20462;-73
2024/02/05 05:37:15;;;;;;;35.25;7.40;;;11.80;99.90;;;;;;5033314;28;20535;-73
2024/02/05 05:39:40;;;;;;;31.08;7.55;;;11.80;99.90;;;;;;5033968;28;20025;-73
2024/02/05 05:42:08;;;;;;;35.92;8.27;;;11.80;99.90;;;;;;5026435;28;20395;-73
2024/02/05 05:44:34;;;;;;;33.00;6.68;;;11.70;99.90;;;;;;5020352;28;20223;-73
2024/02/05 05:47:01;;;;;;;33.50;7.13;;;11.70;99.90;;;;;;5013864;28;20030;-73
2024/02/05 05:49:28;;;;;;;36.67;6.43;;;11.70;99.90;;;;;;5012799;28;20398;-73
2024/02/05 05:51:56;;;;;;;28.17;6.80;;;11.70;99.90;;;;;;5014009;28;20137;-72
2024/02/05 05:54:22;;;;;;;32.10;7.05;;;11.70;99.90;;;;;;5013558;28;20073;-73
2024/02/05 05:56:47;;;;;;;38.00;7.70;;;11.70;99.90;;;;;;5013644;28;20018;-73
2024/02/05 05:59:14;;;;;;;33.80;6.90;;;11.70;99.90;;;;;;5013379;28;20120;-73
2024/02/05 06:01:40;;;;;;;30.38;6.53;;;11.70;99.90;;;;;;5013280;28;20532;-73
2024/02/05 06:04:06;;;;;;;39.63;6.63;;;11.70;99.90;;;;;;5029170;28;20072;-73
2024/02/05 06:06:33;;;;;;;41.22;7.55;;;11.80;99.90;;;;;;5033258;28;20483;-73
2024/02/05 06:09:04;;;;;;;39.60;6.75;;;11.70;99.90;;;;;;5031927;28;20041;-73
2024/02/05 06:11:31;;;;;;;30.17;7.03;;;11.70;99.90;;;;;;5032840;28;20497;-73
2024/02/05 06:13:57;;;;;;;33.70;6.53;;;11.70;99.90;;;;;;5031850;28;20105;-73
2024/02/05 06:16:23;;;;;;;31.75;5.97;;;11.60;99.90;;;;;;5014989;28;20030;-73
2024/02/05 06:18:48;;;;;;;28.02;6.93;;;11.70;99.90;;;;;;5012658;28;20108;-73
2024/02/05 06:21:14;;;;;;;32.72;7.18;;;11.60;99.90;;;;;;5013232;28;20459;-73
2024/02/05 06:23:40;;;;;;;24.48;6.90;;;11.50;99.90;;;;;;5012366;28;20052;-73
2024/02/05 06:26:07;;;;;;;31.17;6.20;;;11.60;99.90;;;;;;5012707;28;20022;-73
2024/02/05 06:28:33;;;;;;;31.90;6.88;;;11.60;99.90;;;;;;5020765;28;20022;-73
2024/02/05 06:30:59;;;;;;;30.63;6.65;;;11.60;99.90;;;;;;5015449;28;20037;-73
2024/02/05 06:33:25;;;;;;;37.83;7.28;;;11.60;99.90;;;;;;5026582;28;20029;-73
2024/02/05 06:35:51;;;;;;;33.05;6.97;;;11.50;99.90;;;;;;5032211;28;20033;-73
2024/02/05 06:38:17;;;;;;;35.40;6.82;;;11.60;99.90;;;;;;5031114;28;20483;-73
2024/02/05 06:40:43;;;;;;;31.27;7.25;;;11.70;99.90;;;;;;5031501;28;20029;-73
2024/02/05 06:43:09;;;;;;;32.08;7.00;;;11.70;99.90;;;;;;5031535;28;20112;-73
2024/02/05 06:45:37;;;;;;;41.40;7.28;;;11.50;99.90;;;;;;5031494;28;20119;-73
2024/02/05 06:48:04;;;;;;;33.78;6.97;;;11.60;99.90;;;;;;5032357;28;20036;-73
2024/02/05 06:50:30;;;;;;;38.72;6.95;;;11.50;99.90;;;;;;5030624;28;20088;-73
2024/02/05 06:52:55;;;;;;;32.28;6.00;;;11.60;99.90;;;;;;5024010;28;20557;-73
2024/02/05 06:55:21;;;;;;;35.10;7.28;;;11.70;99.90;;;;;;5031926;28;20096;-73
2024/02/05 06:57:48;;;;;;;38.30;6.90;;;11.70;99.90;;;;;;5031922;28;20052;-72
2024/02/05 07:00:14;;;;;;;40.10;7.07;;;11.60;99.90;;;;;;5031864;28;20079;-73
2024/02/05 07:02:40;;;;;;;36.00;8.27;;;11.60;99.90;;;;;;5028038;28;20028;-73
2024/02/05 07:05:09;;;;;;;33.85;7.10;;;11.60;99.90;;;;;;5013075;28;20030;-73
2024/02/05 07:07:35;;;;;;;31.95;7.03;;;11.60;99.90;;;;;;5011640;28;20021;-73
2024/02/05 07:10:02;;;;;;;32.28;7.30;;;11.40;99.90;;;;;;5014728;28;20500;-72
2024/02/05 07:12:28;;;;;;;32.42;6.82;;;11.50;99.90;;;;;;5032092;28;20033;-73
2024/02/05 07:14:53;;;;;;;38.95;7.18;;;11.60;99.90;;;;;;5031333;28;20509;-73
2024/02/05 07:17:30;;;;;;;39.22;9.65;;;11.50;99.90;;;;;;5031392;28;20438;-73
2024/02/05 07:19:59;;;;;;;33.70;8.23;;;11.50;99.90;;;;;;5029219;28;20383;-73
2024/02/05 07:22:24;;;;;;;35.75;7.40;;;11.50;99.90;;;;;;5037536;28;20036;-73
2024/02/05 07:24:50;;;;;;;26.13;7.00;;;11.50;99.90;;;;;;5048431;28;20107;-73
2024/02/05 07:27:16;;;;;;;28.50;7.80;;;11.40;99.90;;;;;;5049424;28;20025;-73
2024/02/05 07:29:42;;;;;;;37.83;8.38;;;11.50;99.90;;;;;;5030311;28;20033;-73
2024/02/05 07:32:08;;;;;;;38.95;7.47;;;11.50;99.90;;;;;;5029254;28;20037;-73
2024/02/05 07:34:34;;;;;;;38.58;7.65;;;11.50;99.90;;;;;;5030315;28;20096;-72
2024/02/05 07:36:59;;;;;;;28.38;6.53;;;11.50;99.90;;;;;;5033156;28;20037;-73
2024/02/05 07:39:26;;;;;;;40.38;7.82;;;11.60;99.90;;;;;;5029988;28;20026;-73
2024/02/05 07:41:52;;;;;;;33.55;7.05;;;11.50;99.90;;;;;;5015881;28;20025;-73
2024/02/05 07:44:18;;;;;;;38.25;6.90;;;11.50;99.90;;;;;;5015664;28;20030;-74
2024/02/05 07:46:44;;;;;;;28.63;7.65;;;11.50;99.90;;;;;;5015034;28;20038;-73
2024/02/05 07:49:09;;;;;;;27.45;8.05;;;11.50;99.90;;;;;;5021024;28;20039;-74
2024/02/05 07:51:46;;;;;;;34.38;8.50;;;11.50;99.90;;;;;;5026024;28;20029;-73
2024/02/05 07:54:12;;;;;;;48.38;7.65;;;11.50;99.90;;;;;;5044419;28;20021;-73
2024/02/05 07:56:40;;;;;;;33.88;6.95;;;11.50;99.90;;;;;;5034729;28;20033;-73
2024/02/05 07:59:06;;;;;;;33.85;6.97;;;11.50;99.90;;;;;;5009530;28;20026;-73
2024/02/05 08:01:31;;;;;;;26.83;6.35;;;11.50;99.90;;;;;;5031599;28;20402;-74
2024/02/05 08:03:57;;;;;;;33.25;7.30;;;11.40;99.90;;;;;;5024096;28;20072;-74
2024/02/05 08:06:23;;;;;;;36.00;7.90;;;11.40;99.90;;;;;;5011132;28;20061;-73
2024/02/05 08:08:49;;;;;;;28.52;6.60;;;11.30;99.90;;;;;;5022049;28;20021;-73
2024/02/05 08:11:19;;;;;;;35.38;6.90;;;11.40;99.90;;;;;;5018579;28;20053;-73
2024/02/05 08:13:45;;;;;;;48.72;8.32;;;11.40;99.90;;;;;;5043012;28;20029;-72
2024/02/05 08:16:11;;;;;;;32.80;7.90;;;11.40;99.90;;;;;;5014265;28;20026;-73
2024/02/05 08:18:37;;;;;;;41.80;7.70;;;11.50;99.90;;;;;;5016112;28;20030;-72
2024/02/05 08:21:04;;;;;;;39.03;7.53;;;11.40;99.90;;;;;;5011963;28;20109;-72
2024/02/05 08:23:30;;;;;;;36.35;7.75;;;11.40;99.90;;;;;;5019748;28;20044;-72
2024/02/05 08:25:56;;;;;;;36.20;7.50;;;11.40;99.90;;;;;;5025169;28;20478;-73
2024/02/05 08:28:21;;;;;;;39.55;6.78;;;11.40;99.90;;;;;;5024267;28;20029;-72
2024/02/05 08:30:47;;;;;;;32.60;7.05;;;11.50;99.90;;;;;;5019826;28;20040;-72
2024/02/05 08:33:13;;;;;;;33.55;7.65;;;11.50;99.90;;;;;;5013654;28;20033;-72
2024/02/05 08:35:42;;;;;;;32.45;7.65;;;11.50;99.90;;;;;;5024421;28;20053;-74
2024/02/05 08:38:08;;;;;;;38.55;7.38;;;11.50;99.90;;;;;;5027059;28;20032;-73
2024/02/05 08:40:34;;;;;;;37.33;7.38;;;11.40;99.90;;;;;;5032297;28;20025;-74
2024/02/05 08:43:00;;;;;;;33.55;7.35;;;11.50;99.90;;;;;;5030478;28;20030;-73
2024/02/05 08:45:27;;;;;;;34.42;6.97;;;11.60;99.90;;;;;;5024477;28;20036;-72
2024/02/05 08:47:53;;;;;;;29.88;6.05;;;11.60;99.90;;;;;;5031886;28;20025;-72
2024/02/05 08:50:19;;;;;;;36.58;7.85;;;11.60;99.90;;;;;;5033666;28;20109;-73
2024/02/05 08:52:48;;;;;;;37.72;7.25;;;11.60;99.90;;;;;;5034648;28;20037;-73
2024/02/05 08:55:14;;;;;;;32.58;7.40;;;11.50;99.90;;;;;;5047063;28;20096;-73
2024/02/05 08:57:41;;;;;;;39.15;7.20;;;11.60;99.90;;;;;;5052659;28;20105;-72
2024/02/05 09:00:11;;;;;;;31.80;7.60;;;11.60;99.90;;;;;;5045124;28;20042;-72
2024/02/05 09:02:39;;;;;;;40.63;7.47;;;11.50;99.90;;;;;;5023754;28;20022;-72
2024/02/05 09:05:05;;;;;;;36.30;7.40;;;11.60;99.90;;;;;;5023170;28;20032;-72
2024/02/05 09:07:31;;;;;;;39.72;8.10;;;11.60;99.90;;;;;;5024705;28;20017;-72
2024/02/05 09:09:57;;;;;;;39.28;8.18;;;11.60;99.90;;;;;;5023508;28;20029;-72
2024/02/05 09:12:22;;;;;;;46.85;8.48;;;11.60;99.90;;;;;;5023643;28;20033;-72
2024/02/05 09:14:50;;;;;;;34.08;7.22;;;11.60;99.90;;;;;;5022866;28;20022;-72
2024/02/05 09:17:16;;;;;;;28.05;6.30;;;11.70;99.90;;;;;;5026704;28;20022;-73
2024/02/05 09:19:42;;;;;;;29.52;6.85;;;11.80;99.90;;;;;;5023658;28;20022;-73
2024/02/05 09:22:08;;;;;;;31.30;6.53;;;11.80;99.90;;;;;;5022401;28;20249;-73
2024/02/05 09:24:34;;;;;;;44.92;8.48;;;11.80;99.90;;;;;;5026079;28;20500;-72
2024/02/05 09:27:00;;;;;;;37.15;7.53;;;11.80;99.90;;;;;;5013813;28;20105;-73
2024/02/05 09:29:26;;;;;;;31.13;6.10;;;11.80;99.90;;;;;;5023921;28;20109;-71
2024/02/05 09:31:53;;;;;;;33.70;7.63;;;11.80;99.90;;;;;;5018560;28;20041;-73
2024/02/05 09:34:18;;;;;;;36.58;7.88;;;11.70;99.90;;;;;;5024837;28;20026;-72
2024/02/05 09:36:44;;;;;;;35.28;7.60;;;11.70;99.90;;;;;;5025843;28;20541;-72
2024/02/05 09:39:11;;;;;;;29.17;7.13;;;11.70;99.90;;;;;;5025044;28;20446;-72
2024/02/05 09:41:39;;;;;;;32.13;7.80;;;11.80;99.90;;;;;;5023838;28;20075;-73
2024/02/05 09:44:05;;;;;;;33.03;7.97;;;11.70;99.90;;;;;;5032472;28;20059;-72
2024/02/05 09:46:33;;;;;;;33.00;7.80;;;11.70;99.90;;;;;;5032902;28;20018;-72
2024/02/05 09:49:00;;;;;;;45.15;10.07;;;11.80;99.90;;;;;;5031541;28;20029;-72
2024/02/05 09:51:29;;;;;;;34.40;7.38;;;11.80;99.90;;;;;;5023610;28;20043;-73
2024/02/05 09:53:57;;;;;;;36.70;8.05;;;11.70;99.90;;;;;;5023709;28;20116;-72
2024/02/05 09:56:25;;;;;;;27.35;7.68;;;11.80;99.90;;;;;;5021170;28;20032;-72
2024/02/05 09:58:51;;;;;;;38.92;7.25;;;11.80;99.90;;;;;;5023305;28;20117;-71
2024/02/05 10:01:19;;;;;;;34.25;7.40;;;11.70;99.90;;;;;;5019757;28;20042;-74
2024/02/05 10:03:50;;;;;;;30.63;7.03;;;11.80;99.90;;;;;;5021404;28;20025;-73
2024/02/05 10:06:18;;;;;;;38.22;6.90;;;11.80;99.90;;;;;;5023821;28;20025;-72
2024/02/05 10:09:04;;;;;;;30.08;8.27;;;11.90;99.90;;;;;;5024801;28;20030;-72
2024/02/05 10:11:37;;;;;;;31.88;6.93;;;11.90;99.90;;;;;;5017427;28;20037;-72
2024/02/05 10:14:03;;;;;;;38.30;7.40;;;12.00;99.90;;;;;;5011436;28;20018;-73
2024/02/05 10:16:29;;;;;;;27.48;6.35;;;12.10;99.90;;;;;;5013208;28;20076;-72
2024/02/05 10:18:54;;;;;;;32.55;7.68;;;12.20;99.90;;;;;;5031063;28;20029;-72
2024/02/05 10:21:20;;;;;;;33.17;7.13;;;12.10;99.90;;;;;;5024557;28;20037;-72
2024/02/05 10:23:55;;;;;;;27.73;6.72;;;12.10;99.90;;;;;;5012852;28;20022;-73
2024/02/05 10:26:23;;;;;;;32.58;7.47;;;12.20;99.90;;;;;;5010375;28;20451;-73
2024/02/05 10:28:49;;;;;;;28.42;6.10;;;12.10;99.90;;;;;;5021859;28;20021;-73
2024/02/05 10:31:16;;;;;;;31.13;6.55;;;12.10;99.90;;;;;;5012737;28;20068;-73
2024/02/05 10:33:43;;;;;;;32.45;6.80;;;12.20;99.90;;;;;;5011489;28;20479;-73
2024/02/05 10:36:18;;;;;;;33.17;6.18;;;12.30;99.90;;;;;;5012702;28;20228;-73
2024/02/05 10:38:45;;;;;;;33.17;6.22;;;12.30;99.90;;;;;;5011616;28;20037;-73
2024/02/05 10:41:11;;;;;;;27.60;5.97;;;12.40;99.90;;;;;;5012784;28;20018;-73
2024/02/05 10:43:39;;;;;;;31.60;6.97;;;12.40;99.90;;;;;;5012789;28;20041;-73
2024/02/05 10:46:05;;;;;;;33.60;5.90;;;12.50;99.90;;;;;;5012455;28;20029;-72
2024/02/05 10:48:31;;;;;;;25.55;5.82;;;12.50;99.90;;;;;;5017925;28;20026;-72
2024/02/05 10:50:56;;;;;;;27.20;5.95;;;12.50;99.90;;;;;;5006089;28;20131;-72
2024/02/05 10:53:23;;;;;;;25.35;5.75;;;12.60;99.90;;;;;;5002596;28;20036;-72
2024/02/05 10:55:51;;;;;;;31.30;6.28;;;12.50;99.90;;;;;;5027358;28;20052;-72
2024/02/05 10:58:18;;;;;;;25.45;5.68;;;12.60;99.90;;;;;;5032571;28;20079;-72
2024/02/05 11:00:44;;;;;;;25.85;6.20;;;12.70;99.90;;;;;;5029681;28;20021;-73
2024/02/05 11:03:14;;;;;;;28.88;6.57;;;12.60;99.90;;;;;;5027370;28;20033;-72
2024/02/05 11:05:41;;;;;;;31.13;6.43;;;12.60;99.90;;;;;;5025012;28;20014;-72
2024/02/05 11:08:24;;;;;;;32.47;6.25;;;12.60;99.90;;;;;;5028752;28;20394;-72
2024/02/05 11:10:55;;;;;;;23.85;5.97;;;12.60;99.90;;;;;;5027224;28;20104;-73
2024/02/05 11:13:26;;;;;;;26.00;6.15;;;12.60;99.90;;;;;;5026869;28;20033;-73
2024/02/05 11:15:53;;;;;;;28.02;6.43;;;12.60;99.90;;;;;;5028865;28;20043;-73
2024/02/05 11:18:42;;;;;;;27.25;6.18;;;12.60;99.90;;;;;;5026635;28;20072;-74
2024/02/05 11:21:11;;;;;;;27.63;6.45;;;12.60;99.90;;;;;;5027827;28;20425;-74
2024/02/05 11:23:38;;;;;;;25.73;7.45;;;12.60;99.90;;;;;;5029564;28;20026;-74
2024/02/05 11:26:04;;;;;;;28.55;6.22;;;12.60;99.90;;;;;;5023989;28;20437;-74
2024/02/05 11:28:31;;;;;;;28.02;7.00;;;12.70;99.90;;;;;;5026448;28;20017;-74
2024/02/05 11:31:02;;;;;;;27.30;6.72;;;12.70;99.90;;;;;;5027161;28;20116;-74
2024/02/05 11:33:29;;;;;;;17.77;6.28;;;12.70;99.90;;;;;;5019977;28;20128;-74
2024/02/05 11:35:57;;;;;;;36.45;6.75;;;12.70;99.90;;;;;;5023235;28;20033;-73
2024/02/05 11:38:23;;;;;;;27.17;5.78;;;12.60;99.90;;;;;;5023842;28;20673;-74
2024/02/05 11:40:50;;;;;;;32.90;7.43;;;12.60;99.90;;;;;;5024895;28;20025;-73
2024/02/05 11:43:24;;;;;;;31.38;6.03;;;12.60;99.90;;;;;;5026559;28;20026;-74
2024/02/05 11:45:51;;;;;;;24.63;6.97;;;12.60;99.90;;;;;;5023761;28;20825;-73
2024/02/05 11:48:19;;;;;;;30.00;6.50;;;12.60;99.90;;;;;;5023844;28;20410;-73
2024/02/05 11:50:46;;;;;;;22.42;6.35;;;12.60;99.90;;;;;;5024916;28;20022;-74
2024/02/05 11:53:13;;;;;;;27.77;6.25;;;12.70;99.90;;;;;;5028440;28;20048;-74
2024/02/05 11:55:39;;;;;;;28.98;6.32;;;12.70;99.90;;;;;;5026849;28;20025;-74
2024/02/05 11:58:05;;;;;;;28.15;6.40;;;12.70;99.90;;;;;;5028939;28;20028;-73
2024/02/05 12:00:30;;;;;;;27.70;7.00;;;12.60;99.90;;;;;;5027167;28;20037;-74
2024/02/05 12:02:56;;;;;;;31.00;6.40;;;12.70;99.90;;;;;;5025984;28;20064;-74
2024/02/05 12:05:24;;;;;;;34.35;6.57;;;12.70;99.90;;;;;;5030465;28;20478;-74
2024/02/05 12:07:50;;;;;;;21.15;6.20;;;12.90;99.90;;;;;;5026562;28;20032;-75
2024/02/05 12:10:17;;;;;;;27.77;6.25;;;12.90;99.90;;;;;;5026561;28;20025;-74
2024/02/05 12:12:43;;;;;;;28.65;6.05;;;12.90;99.90;;;;;;5030420;28;20040;-76
2024/02/05 12:15:19;;;;;;;29.02;7.15;;;12.90;99.90;;;;;;5037665;28;20025;-74
2024/02/05 12:17:46;;;;;;;28.05;6.75;;;12.80;99.90;;;;;;5039558;28;20458;-74
2024/02/05 12:20:22;;;;;;;33.33;6.25;;;12.80;99.90;;;;;;5037827;28;20025;-74
2024/02/05 12:22:48;;;;;;;31.35;6.90;;;12.80;99.90;;;;;;5039570;28;20026;-75
2024/02/05 12:25:17;;;;;;;31.95;6.57;;;13.00;99.90;;;;;;5041699;28;20082;-75
2024/02/05 12:27:43;;;;;;;33.83;5.80;;;13.10;99.90;;;;;;5042327;28;20028;-75
2024/02/05 12:30:09;;;;;;;27.92;6.30;;;13.00;99.90;;;;;;5041585;28;20037;-74
2024/02/05 12:32:35;;;;;;;19.02;5.47;;;13.00;99.90;;;;;;5038897;28;20051;-75
2024/02/05 12:35:01;;;;;;;26.95;5.68;;;12.90;99.90;;;;;;5042157;28;20021;-75